This is the latest recevied weather packets stored in our database for station/object K0WOI. If no packets are shown the sender has not sent any weather packets the latest 1 day(s).
| Time | Temp. | Humidity | Pressure | Rain* | Wind** | Luminosity | Snow |
|---|---|---|---|---|---|---|---|
| 1836274668 | 15° C | 99% | 1016.1 hPa | 0 mm | 0 m/s | 0 W/m² | - |
| 1836274521 | 15.56° C | 99% | 1016.1 hPa | 0 mm | 0 m/s | 0 W/m² | - |
| 1836274366 | 15° C | 99% | 1016.1 hPa | 0 mm | 0 m/s | 0 W/m² | - |
| 1836274220 | 15° C | 99% | 1016 hPa | 0 mm | 0 m/s | 0 W/m² | - |
| 1836274064 | 15° C | 99% | 1015.8 hPa | 0 mm | 0 m/s | 0 W/m² | - |
| 1778046610 | 5° C | 61% | 1014 hPa | 0 mm | 0 m/s | 0 W/m² | - |
| 1778046308 | 5° C | 61% | 1014 hPa | 0 mm | 0 m/s | 0 W/m² | - |
| 1778046003 | 5.56° C | 59% | 1014 hPa | 0 mm | 0 m/s | 0 W/m² | - |
| 1778045702 | 5.56° C | 59% | 1013.9 hPa | 0 mm | 0.45 m/s, 318° | 0 W/m² | - |
| 1778045399 | 5.56° C | 59% | 1013.9 hPa | 0 mm | 0.45 m/s, 317° | 0 W/m² | - |
| 1778045098 | 5.56° C | 60% | 1013.8 hPa | 0 mm | 0.89 m/s, 317° | 0 W/m² | - |
| 1778044795 | 5° C | 68% | 1013.7 hPa | 0 mm | 0 m/s | 0 W/m² | - |
| 1778044492 | 5.56° C | 67% | 1013.5 hPa | 0 mm | 0 m/s | 0 W/m² | - |
| 1778044189 | 5.56° C | 63% | 1013.4 hPa | 0 mm | 0 m/s | 0 W/m² | - |
| 1778043887 | 5.56° C | 60% | 1013.5 hPa | 0 mm | 0.45 m/s, 318° | 0 W/m² | - |
| 1778043584 | 5.56° C | 60% | 1013.6 hPa | 0 mm | 0.45 m/s, 318° | 0 W/m² | - |
| 1778043280 | 5.56° C | 69% | 1013.4 hPa | 0 mm | 0.45 m/s, 318° | 0 W/m² | - |
| 1778042977 | 5.56° C | 68% | 1013.1 hPa | 0 mm | 0 m/s | 0 W/m² | - |
| 1778042675 | 6.11° C | 64% | 1013.2 hPa | 0 mm | 0 m/s | 0 W/m² | - |
| 1778042371 | 6.11° C | 64% | 1013 hPa | 0 mm | 0 m/s | 0 W/m² | - |
| 1778042069 | 5.56° C | 66% | 1013.2 hPa | 0 mm | 0 m/s | 0 W/m² | - |
| 1778041767 | 6.11° C | 66% | 1013.1 hPa | 0 mm | 0 m/s | 0 W/m² | - |
| 1778041466 | 6.11° C | 62% | 1012.9 hPa | 0 mm | 0 m/s | 0 W/m² | - |
| 1778041163 | 6.11° C | 61% | 1012.9 hPa | 0 mm | 0 m/s | 0 W/m² | - |
| 1778040861 | 6.67° C | 64% | 1013.1 hPa | 0 mm | 0 m/s | 0 W/m² | - |
* Rain latest hour (hover to see other rain measurements)
** Current wind speed in m/s (hover to see current wind gust speed)